Time;durP1;ratioP1;P1;durP2;ratioP2;P2;SDS_P1;SDS_P2;PMS_P1;PMS_P2;Temp;Humidity;BMP_temperature;BMP_pressure;BME280_temperature;BME280_humidity;BME280_pressure;Samples;Min_cycle;Max_cycle;Signal;HPM_P1;HPM_P2
2023/12/14 00:00:54;;;;;;;3.00;0.82;;;;;;;5.62;100.00;93612.44;4992959;28;20625;-78
2023/12/14 00:03:21;;;;;;;0.40;0.40;;;;;;;5.65;100.00;93643.25;4993494;28;20622;-77
2023/12/14 00:05:49;;;;;;;0.20;0.20;;;;;;;5.43;100.00;93606.69;4992409;28;20216;-78
2023/12/14 00:08:16;;;;;;;0.65;0.45;;;;;;;5.72;100.00;93628.25;4991872;28;20217;-77
2023/12/14 00:10:43;;;;;;;0.30;0.30;;;;;;;5.59;100.00;93613.13;4992322;28;20213;-79
2023/12/14 00:13:10;;;;;;;8.35;1.13;;;;;;;5.70;100.00;93602.81;4993076;28;20685;-79
2023/12/14 00:15:36;;;;;;;0.65;0.65;;;;;;;5.70;100.00;93619.72;4992434;28;20672;-79
2023/12/14 00:18:03;;;;;;;0.47;0.47;;;;;;;5.73;100.00;93615.59;4992871;28;20217;-79
2023/12/14 00:20:30;;;;;;;0.20;0.20;;;;;;;5.62;100.00;93639.31;4992825;28;20206;-78
2023/12/14 00:22:58;;;;;;;0.57;0.57;;;;;;;5.45;100.00;93622.47;4992648;28;20237;-80
2023/12/14 00:25:25;;;;;;;0.55;0.55;;;;;;;5.46;100.00;93654.38;4992967;28;20277;-78
2023/12/14 00:27:52;;;;;;;0.40;0.40;;;;;;;5.46;100.00;93629.44;4992209;28;20237;-79
2023/12/14 00:30:19;;;;;;;0.73;0.68;;;;;;;5.54;100.00;93620.53;4992699;28;20232;-79
2023/12/14 00:32:46;;;;;;;0.30;0.30;;;;;;;5.61;100.00;93610.88;4992751;28;20213;-79
2023/12/14 00:35:13;;;;;;;0.30;0.30;;;;;;;5.60;100.00;93636.16;4979835;28;20214;-80
2023/12/14 00:37:39;;;;;;;0.60;0.60;;;;;;;5.68;100.00;93626.50;4992230;28;20658;-79
2023/12/14 00:40:09;;;;;;;0.40;0.40;;;;;;;5.55;100.00;93622.13;4992454;28;20237;-80
2023/12/14 00:42:35;;;;;;;0.73;0.57;;;;;;;5.61;100.00;93624.31;4992352;28;20213;-79
2023/12/14 00:45:02;;;;;;;0.88;0.88;;;;;;;5.37;100.00;93624.06;4992719;28;20570;-80
2023/12/14 00:47:29;;;;;;;0.73;0.73;;;;;;;5.49;100.00;93634.94;4992573;28;20237;-80
2023/12/14 00:49:56;;;;;;;0.20;0.20;;;;;;;5.37;100.00;93616.00;4992491;28;20213;-80
2023/12/14 00:52:23;;;;;;;0.57;0.57;;;;;;;5.36;100.00;93642.06;4992459;28;20566;-80
2023/12/14 00:54:50;;;;;;;0.30;0.30;;;;;;;5.14;100.00;93617.31;4992053;28;20206;-80
2023/12/14 00:57:18;;;;;;;0.85;0.60;;;;;;;5.33;100.00;93615.06;4991914;28;20593;-80
2023/12/14 00:59:45;;;;;;;1.17;0.63;;;;;;;5.12;100.00;93619.53;4991946;28;20632;-78
2023/12/14 01:02:12;;;;;;;0.43;0.43;;;;;;;5.14;100.00;93622.69;4991473;28;20215;-78
2023/12/14 01:04:41;;;;;;;0.50;0.50;;;;;;;5.10;100.00;93630.56;4991444;28;20213;-78
2023/12/14 01:07:09;;;;;;;0.73;0.73;;;;;;;5.40;100.00;93631.47;4991365;28;20638;-79
2023/12/14 01:09:36;;;;;;;0.35;0.35;;;;;;;5.51;100.00;93618.50;4991409;28;20214;-79
2023/12/14 01:12:03;;;;;;;0.20;0.20;;;;;;;5.40;100.00;93626.13;4991404;28;20206;-79
2023/12/14 01:14:31;;;;;;;0.22;0.22;;;;;;;5.35;100.00;93615.53;4991435;28;20291;-79
2023/12/14 01:16:58;;;;;;;0.35;0.35;;;;;;;5.27;100.00;93621.72;4991357;28;20613;-78
2023/12/14 01:19:25;;;;;;;0.30;0.30;;;;;;;5.35;100.00;93650.44;4991301;28;20206;-78
2023/12/14 01:21:52;;;;;;;0.32;0.32;;;;;;;5.32;100.00;93613.50;4991285;28;20304;-77
2023/12/14 01:24:19;;;;;;;0.30;0.30;;;;;;;5.20;100.00;93626.75;4991798;28;20215;-76
2023/12/14 01:26:46;;;;;;;0.20;0.20;;;;;;;5.36;100.00;93604.47;4990697;28;20295;-77
2023/12/14 01:29:13;;;;;;;0.30;0.30;;;;;;;5.28;100.00;93607.97;4991414;28;20209;-76
2023/12/14 01:31:41;;;;;;;2.63;1.23;;;;;;;5.28;100.00;93631.34;4990984;28;20218;-78
2023/12/14 01:34:08;;;;;;;0.30;0.30;;;;;;;5.20;100.00;93621.41;4981007;28;20210;-78
2023/12/14 01:36:35;;;;;;;0.20;0.20;;;;;;;5.22;100.00;93616.50;4988886;28;20668;-77
2023/12/14 01:39:02;;;;;;;0.40;0.40;;;;;;;5.22;100.00;93635.28;4990613;28;20249;-77
2023/12/14 01:41:28;;;;;;;0.30;0.30;;;;;;;4.94;100.00;93622.22;4978030;28;20232;-77
2023/12/14 01:43:55;;;;;;;0.40;0.40;;;;;;;4.94;100.00;93608.81;4990613;28;20646;-77
2023/12/14 01:46:22;;;;;;;0.35;0.35;;;;;;;4.94;100.00;93608.81;4991105;28;20232;-78
2023/12/14 01:48:51;;;;;;;0.30;0.30;;;;;;;5.18;100.00;93634.38;4991123;28;20571;-78
2023/12/14 01:51:18;;;;;;;0.25;0.25;;;;;;;5.13;100.00;93605.78;4991251;28;20214;-77
2023/12/14 01:53:45;;;;;;;0.20;0.20;;;;;;;4.92;100.00;93608.31;4990946;28;20578;-76
2023/12/14 01:56:12;;;;;;;0.45;0.45;;;;;;;4.96;100.00;93606.59;4990933;28;20217;-78
2023/12/14 01:58:40;;;;;;;0.30;0.30;;;;;;;4.89;100.00;93624.28;4990137;28;20216;-77
2023/12/14 02:01:17;;;;;;;0.35;0.35;;;;;;;4.93;100.00;93612.59;4990843;28;20214;-77
2023/12/14 02:03:47;;;;;;;0.25;0.25;;;;;;;4.94;100.00;93614.16;4990736;28;20224;-79
2023/12/14 02:06:16;;;;;;;0.20;0.20;;;;;;;5.05;100.00;93597.75;4978258;28;20219;-77
2023/12/14 02:08:42;;;;;;;0.20;0.20;;;;;;;5.13;100.00;93605.00;4991236;28;20217;-78
2023/12/14 02:11:09;;;;;;;0.35;0.35;;;;;;;4.98;100.00;93598.22;4991011;28;20210;-85
2023/12/14 02:13:36;;;;;;;0.40;0.40;;;;;;;4.98;100.00;93592.88;4992564;28;20205;-88
2023/12/14 02:16:03;;;;;;;0.20;0.20;;;;;;;4.93;100.00;93590.34;4992359;28;20619;-87
2023/12/14 02:18:30;;;;;;;0.30;0.30;;;;;;;5.22;100.00;93576.22;4992214;28;20213;-87
2023/12/14 02:20:57;;;;;;;0.20;0.20;;;;;;;5.35;100.00;93591.38;4991930;28;20225;-83
2023/12/14 02:23:25;;;;;;;0.20;0.20;;;;;;;5.18;100.00;93592.22;4991783;28;20554;-82
2023/12/14 02:25:52;;;;;;;1.55;0.90;;;;;;;5.32;100.00;93575.91;4991926;28;20304;-84
2023/12/14 02:28:19;;;;;;;0.30;0.30;;;;;;;5.41;100.00;93584.72;4991579;28;20237;-78
2023/12/14 02:30:46;;;;;;;0.77;0.77;;;;;;;5.44;100.00;93565.28;4992695;28;20522;-77
2023/12/14 02:33:12;;;;;;;0.85;0.85;;;;;;;5.24;100.00;93590.13;4994673;28;20217;-79
2023/12/14 02:35:39;;;;;;;0.35;0.35;;;;;;;5.37;100.00;93581.09;4994674;28;20221;-81
2023/12/14 02:38:06;;;;;;;0.25;0.25;;;;;;;5.36;100.00;93582.19;4993929;28;20228;-78
2023/12/14 02:40:34;;;;;;;0.85;0.85;;;;;;;5.40;100.00;93593.88;4994785;28;20878;-79
2023/12/14 02:43:01;;;;;;;0.65;0.60;;;;;;;5.23;100.00;93588.56;4993919;28;20552;-79
2023/12/14 02:45:28;;;;;;;0.45;0.45;;;;;;;5.21;100.00;93596.13;4994411;28;20213;-80
2023/12/14 02:47:55;;;;;;;0.77;0.77;;;;;;;5.03;100.00;93594.59;4994032;28;20242;-79
2023/12/14 02:50:21;;;;;;;0.45;0.45;;;;;;;5.27;100.00;93609.09;4994407;28;20214;-80
2023/12/14 02:52:48;;;;;;;0.20;0.20;;;;;;;5.45;100.00;93596.41;4994506;28;20216;-82
2023/12/14 02:55:15;;;;;;;0.35;0.35;;;;;;;5.41;100.00;93590.09;4994263;28;20438;-81
2023/12/14 02:57:44;;;;;;;0.20;0.20;;;;;;;5.58;100.00;93611.53;4993880;28;20210;-81
2023/12/14 03:00:12;;;;;;;0.20;0.20;;;;;;;5.54;100.00;93581.06;4994004;28;20213;-78
2023/12/14 03:02:39;;;;;;;0.40;0.40;;;;;;;5.48;100.00;93611.84;4992915;28;20234;-79
2023/12/14 03:05:07;;;;;;;0.20;0.20;;;;;;;5.64;100.00;93618.28;4994457;28;20216;-78
2023/12/14 03:07:33;;;;;;;0.20;0.20;;;;;;;5.64;100.00;93612.94;4998908;28;20233;-77
2023/12/14 03:10:00;;;;;;;0.20;0.20;;;;;;;5.62;100.00;93590.97;4999175;28;20209;-78
2023/12/14 03:12:27;;;;;;;0.20;0.20;;;;;;;5.64;100.00;93582.59;4998957;28;20220;-78
2023/12/14 03:14:56;;;;;;;0.35;0.35;;;;;;;5.69;100.00;93585.91;5003299;28;20209;-77
2023/12/14 03:17:22;;;;;;;0.20;0.20;;;;;;;5.82;100.00;93581.41;5004805;28;20221;-78
2023/12/14 03:19:50;;;;;;;0.77;0.77;;;;;;;5.68;100.00;93573.56;5002597;28;20666;-78
2023/12/14 03:22:16;;;;;;;1.20;1.17;;;;;;;5.56;100.00;93551.97;4999828;28;20225;-78
2023/12/14 03:24:43;;;;;;;0.60;0.60;;;;;;;5.61;100.00;93577.84;4997629;28;20221;-78
2023/12/14 03:27:10;;;;;;;0.20;0.20;;;;;;;5.63;100.00;93557.63;4998240;28;20268;-77
2023/12/14 03:29:37;;;;;;;2.28;0.65;;;;;;;5.75;100.00;93572.25;4997103;28;20213;-76
2023/12/14 03:32:06;;;;;;;0.20;0.20;;;;;;;5.80;100.00;93558.66;4995629;28;20218;-81
2023/12/14 03:34:33;;;;;;;0.20;0.20;;;;;;;5.86;100.00;93573.50;4980622;28;20210;-82
2023/12/14 03:36:59;;;;;;;0.30;0.30;;;;;;;5.74;100.00;93557.28;4993447;28;20236;-79
2023/12/14 03:39:27;;;;;;;0.38;0.38;;;;;;;5.88;100.00;93555.13;4993324;28;20261;-79
2023/12/14 03:41:53;;;;;;;0.20;0.20;;;;;;;5.77;100.00;93543.19;4992827;28;20209;-79
2023/12/14 03:44:20;;;;;;;0.45;0.45;;;;;;;5.75;100.00;93561.50;4993338;28;20271;-78
2023/12/14 03:46:47;;;;;;;0.20;0.20;;;;;;;5.49;100.00;93540.13;4993090;28;20668;-79
2023/12/14 03:49:16;;;;;;;0.43;0.43;;;;;;;5.66;100.00;93559.66;4993410;28;20325;-79
2023/12/14 03:51:43;;;;;;;0.30;0.30;;;;;;;5.52;100.00;93531.44;4992862;28;20232;-79
2023/12/14 03:54:09;;;;;;;0.28;0.28;;;;;;;5.59;100.00;93543.28;4993055;28;20679;-77
2023/12/14 03:56:37;;;;;;;0.20;0.20;;;;;;;5.48;100.00;93525.94;4993383;28;20228;-78
2023/12/14 03:59:04;;;;;;;0.20;0.20;;;;;;;5.52;100.00;93532.22;4992449;28;20224;-79
2023/12/14 04:01:30;;;;;;;0.65;0.65;;;;;;;5.89;100.00;93551.38;4992592;28;20223;-77
2023/12/14 04:03:57;;;;;;;1.20;0.65;;;;;;;5.83;100.00;93531.94;4992874;28;20217;-79
2023/12/14 04:06:26;;;;;;;0.45;0.45;;;;;;;5.50;100.00;93533.66;4993151;28;20205;-80
2023/12/14 04:08:53;;;;;;;0.20;0.20;;;;;;;5.62;100.00;93558.72;4992217;28;20603;-79
2023/12/14 04:11:19;;;;;;;0.28;0.28;;;;;;;5.68;100.00;93552.06;4992806;28;20628;-79
2023/12/14 04:13:50;;;;;;;0.30;0.30;;;;;;;5.61;100.00;93546.41;4974144;28;20245;-76
2023/12/14 04:16:20;;;;;;;1.48;1.38;;;;;;;6.35;100.00;93550.47;4992592;28;20217;-79
2023/12/14 04:18:47;;;;;;;0.20;0.20;;;;;;;5.81;100.00;93587.91;4992401;28;20209;-78
2023/12/14 04:21:13;;;;;;;0.20;0.20;;;;;;;5.65;100.00;93549.25;4992474;28;20218;-79
2023/12/14 04:23:42;;;;;;;0.20;0.20;;;;;;;5.62;100.00;93564.09;4992320;28;20268;-78
2023/12/14 04:26:09;;;;;;;0.20;0.20;;;;;;;5.44;100.00;93543.81;4992780;28;20670;-78
2023/12/14 04:28:36;;;;;;;0.20;0.20;;;;;;;5.49;100.00;93559.72;4992035;28;20292;-79
2023/12/14 04:31:03;;;;;;;1.08;0.85;;;;;;;5.49;100.00;93548.97;4986423;28;20206;-77
2023/12/14 04:33:31;;;;;;;2.20;1.75;;;;;;;5.81;100.00;93563.72;4988456;28;20202;-79
2023/12/14 04:35:58;;;;;;;0.20;0.20;;;;;;;5.65;100.00;93568.84;4968358;28;20198;-78
2023/12/14 04:38:25;;;;;;;0.20;0.20;;;;;;;5.51;100.00;93536.03;4984573;28;20230;-78
2023/12/14 04:40:53;;;;;;;0.38;0.38;;;;;;;5.77;100.00;93565.47;4984773;28;20213;-78
2023/12/14 04:43:20;;;;;;;0.20;0.20;;;;;;;5.76;100.00;93579.22;4983003;28;20574;-79
2023/12/14 04:45:47;;;;;;;0.43;0.43;;;;;;;5.75;100.00;93548.09;4983393;28;20660;-77
2023/12/14 04:48:14;;;;;;;0.20;0.20;;;;;;;5.77;100.00;93549.34;4983608;28;20225;-77
2023/12/14 04:50:42;;;;;;;0.20;0.20;;;;;;;5.87;100.00;93558.97;4984811;28;20205;-78
2023/12/14 04:53:09;;;;;;;0.40;0.40;;;;;;;6.25;100.00;93548.16;4984610;28;20224;-79
2023/12/14 04:55:35;;;;;;;0.20;0.20;;;;;;;6.25;100.00;93559.72;4982979;28;20225;-77
2023/12/14 04:58:04;;;;;;;0.20;0.20;;;;;;;6.29;100.00;93532.94;4985596;28;20208;-77
2023/12/14 05:00:30;;;;;;;0.60;0.60;;;;;;;6.35;100.00;93564.69;4985662;28;20202;-77
2023/12/14 05:02:57;;;;;;;0.20;0.20;;;;;;;6.34;100.00;93567.72;4990296;28;20214;-78
2023/12/14 05:05:24;;;;;;;0.20;0.20;;;;;;;6.34;100.00;93563.13;4990432;28;20216;-79
2023/12/14 05:07:51;;;;;;;0.20;0.20;;;;;;;6.03;100.00;93576.09;4990349;28;20229;-78
2023/12/14 05:10:18;;;;;;;0.20;0.20;;;;;;;5.96;100.00;93562.41;4995415;28;20641;-78
2023/12/14 05:12:45;;;;;;;0.20;0.20;;;;;;;6.07;100.00;93563.59;4990514;28;20214;-78
2023/12/14 05:15:14;;;;;;;0.30;0.30;;;;;;;6.05;100.00;93549.69;4991143;28;20684;-79
2023/12/14 05:17:41;;;;;;;0.20;0.20;;;;;;;6.15;100.00;93560.06;4993803;28;20221;-79
2023/12/14 05:20:09;;;;;;;0.20;0.20;;;;;;;6.11;100.00;93548.41;4991762;28;20549;-79
2023/12/14 05:22:37;;;;;;;0.20;0.20;;;;;;;6.20;100.00;93546.44;4987211;28;20217;-79
2023/12/14 05:25:04;;;;;;;0.47;0.47;;;;;;;6.27;100.00;93552.09;4991186;28;20338;-79
2023/12/14 05:27:31;;;;;;;0.75;0.75;;;;;;;6.26;100.00;93555.13;4991503;28;20213;-78
2023/12/14 05:29:58;;;;;;;0.30;0.30;;;;;;;6.12;100.00;93555.38;4987098;28;20206;-79
2023/12/14 05:32:29;;;;;;;1.08;0.65;;;;;;;6.21;100.00;93564.16;4981021;28;20210;-78
2023/12/14 05:34:55;;;;;;;0.20;0.20;;;;;;;5.96;100.00;93559.72;4978048;28;20637;-79
2023/12/14 05:37:22;;;;;;;4.28;1.05;;;;;;;5.89;100.00;93589.78;4991167;28;20609;-78
2023/12/14 05:39:49;;;;;;;0.20;0.20;;;;;;;5.71;100.00;93559.50;4990727;28;20241;-79
2023/12/14 05:42:17;;;;;;;0.50;0.50;;;;;;;5.91;100.00;93581.41;4991467;28;20245;-78
2023/12/14 05:44:44;;;;;;;0.50;0.50;;;;;;;5.85;100.00;93588.03;4991211;28;20555;-79
2023/12/14 05:47:11;;;;;;;0.73;0.55;;;;;;;5.58;100.00;93563.19;4990933;28;20283;-77
2023/12/14 05:49:43;;;;;;;0.20;0.20;;;;;;;5.59;100.00;93602.38;4990890;28;20230;-79
2023/12/14 05:52:10;;;;;;;0.20;0.20;;;;;;;5.59;100.00;93583.56;4991022;28;20209;-79
2023/12/14 05:54:37;;;;;;;0.22;0.22;;;;;;;5.80;100.00;93586.31;4991384;28;20686;-78
2023/12/14 05:57:04;;;;;;;0.35;0.35;;;;;;;5.82;100.00;93588.69;4990865;28;20547;-78
2023/12/14 05:59:31;;;;;;;0.30;0.30;;;;;;;5.88;100.00;93573.94;4990915;28;20582;-78
2023/12/14 06:01:58;;;;;;;0.30;0.30;;;;;;;6.12;100.00;93593.00;4990849;28;20221;-77
2023/12/14 06:04:25;;;;;;;1.25;1.23;;;;;;;5.93;100.00;93590.72;4991715;28;20205;-80
2023/12/14 06:06:53;;;;;;;0.30;0.30;;;;;;;5.63;100.00;93576.44;4993982;28;20214;-78
2023/12/14 06:09:24;;;;;;;0.52;0.52;;;;;;;5.80;100.00;93601.66;4994984;28;20692;-78
2023/12/14 06:11:52;;;;;;;0.28;0.28;;;;;;;5.82;100.00;93589.47;4994817;28;20232;-81
2023/12/14 06:14:19;;;;;;;0.20;0.20;;;;;;;5.92;100.00;93589.13;5003967;28;20546;-88
2023/12/14 06:16:46;;;;;;;0.20;0.20;;;;;;;6.06;100.00;93594.28;4993133;28;20589;-78
2023/12/14 06:19:13;;;;;;;4.63;0.95;;;;;;;6.06;100.00;93596.97;4988399;28;20214;-79
2023/12/14 06:21:40;;;;;;;2.30;1.58;;;;;;;6.15;100.00;93607.69;4990911;28;20209;-77
2023/12/14 06:24:08;;;;;;;0.22;0.22;;;;;;;6.01;100.00;93602.56;4983451;28;20289;-82
2023/12/14 06:26:35;;;;;;;0.50;0.50;;;;;;;6.22;100.00;93607.97;4981850;28;20202;-84
2023/12/14 06:29:02;;;;;;;0.50;0.50;;;;;;;6.00;100.00;93598.28;4991743;28;20233;-84
2023/12/14 06:31:29;;;;;;;0.30;0.30;;;;;;;6.18;100.00;93629.31;4995620;28;20678;-83
2023/12/14 06:33:57;;;;;;;0.73;0.63;;;;;;;6.00;100.00;93600.97;4985619;28;20214;-80
2023/12/14 06:36:26;;;;;;;0.20;0.20;;;;;;;6.26;100.00;93625.81;4991535;28;20617;-79
2023/12/14 06:38:53;;;;;;;0.82;0.82;;;;;;;6.23;100.00;93620.28;4990486;28;20226;-80
2023/12/14 06:41:22;;;;;;;0.90;0.90;;;;;;;6.27;100.00;93619.34;5002825;28;20221;-82
2023/12/14 06:43:49;;;;;;;0.95;0.95;;;;;;;6.61;100.00;93633.66;4994767;28;20558;-77
2023/12/14 06:46:16;;;;;;;0.20;0.20;;;;;;;6.80;100.00;93625.16;4996187;28;20586;-82
2023/12/14 06:48:43;;;;;;;0.60;0.60;;;;;;;6.82;99.34;93626.41;5009491;28;20319;-80
2023/12/14 06:51:10;;;;;;;0.52;0.52;;;;;;;6.77;99.12;93618.53;4999006;28;20225;-79
2023/12/14 06:53:40;;;;;;;0.30;0.30;;;;;;;7.10;98.72;93658.97;4995783;28;20210;-80
2023/12/14 06:56:09;;;;;;;0.30;0.30;;;;;;;7.32;98.27;93649.75;4995693;28;20222;-81
2023/12/14 06:58:37;;;;;;;0.57;0.57;;;;;;;7.40;96.91;93624.63;4998782;28;20571;-80
2023/12/14 07:01:04;;;;;;;0.20;0.20;;;;;;;7.57;95.90;93640.63;4996121;28;20252;-81
2023/12/14 07:03:31;;;;;;;1.10;0.35;;;;;;;7.50;95.24;93637.69;4993514;28;20216;-80
2023/12/14 07:05:58;;;;;;;0.65;0.65;;;;;;;7.57;95.65;93651.41;4993698;28;20582;-80
2023/12/14 07:08:25;;;;;;;0.20;0.20;;;;;;;7.87;95.05;93632.38;4998538;28;20229;-79
2023/12/14 07:10:52;;;;;;;0.60;0.60;;;;;;;7.97;94.07;93616.56;4999696;28;20218;-80
2023/12/14 07:13:19;;;;;;;0.30;0.30;;;;;;;8.16;93.23;93629.50;4995505;28;20205;-80
2023/12/14 07:15:47;;;;;;;0.65;0.43;;;;;;;8.38;93.02;93637.16;4984573;28;20616;-80
2023/12/14 07:18:14;;;;;;;0.40;0.40;;;;;;;8.66;91.33;93641.88;4989412;28;20206;-82
2023/12/14 07:20:41;;;;;;;0.47;0.47;;;;;;;8.85;90.61;93639.38;4981174;28;20217;-81
2023/12/14 07:23:08;;;;;;;0.90;0.82;;;;;;;8.68;89.76;93645.03;4998314;28;20300;-81
2023/12/14 07:25:35;;;;;;;1.77;0.98;;;;;;;8.69;89.41;93654.69;4997582;28;20665;-81
2023/12/14 07:28:02;;;;;;;0.70;0.70;;;;;;;8.86;88.94;93655.25;4999244;28;20221;-80
2023/12/14 07:30:29;;;;;;;0.50;0.50;;;;;;;9.05;88.90;93641.13;4995107;28;20252;-81
2023/12/14 07:32:57;;;;;;;0.93;0.93;;;;;;;9.22;87.63;93648.16;4994582;28;20206;-81
2023/12/14 07:35:24;;;;;;;0.70;0.70;;;;;;;9.08;86.40;93653.16;4994113;28;20213;-81
2023/12/14 07:37:51;;;;;;;0.50;0.50;;;;;;;9.29;87.31;93647.59;4994333;28;20276;-80
2023/12/14 07:40:18;;;;;;;0.20;0.20;;;;;;;9.50;87.26;93643.56;4985795;28;20249;-80
2023/12/14 07:42:45;;;;;;;0.52;0.52;;;;;;;9.63;85.87;93657.81;4988282;28;20198;-80
2023/12/14 07:45:12;;;;;;;0.30;0.30;;;;;;;9.50;85.89;93670.59;4993853;28;20210;-80
2023/12/14 07:47:39;;;;;;;2.10;1.55;;;;;;;9.37;85.81;93650.13;4993380;28;20214;-84
2023/12/14 07:50:08;;;;;;;0.68;0.68;;;;;;;9.65;86.97;93666.34;4994369;28;20225;-83
2023/12/14 07:52:35;;;;;;;0.65;0.65;;;;;;;9.63;84.88;93657.81;4996824;28;20229;-81
2023/12/14 07:55:03;;;;;;;4.50;1.38;;;;;;;9.71;84.53;93664.19;4992967;28;20206;-83
2023/12/14 07:57:29;;;;;;;1.08;0.60;;;;;;;9.83;83.87;93667.63;4995172;28;20518;-82
2023/12/14 07:59:56;;;;;;;0.30;0.30;;;;;;;9.62;83.41;93645.41;4992841;28;20205;-79
2023/12/14 08:02:23;;;;;;;0.20;0.20;;;;;;;9.81;83.88;93678.00;4990084;28;20208;-79
2023/12/14 08:04:50;;;;;;;0.60;0.60;;;;;;;10.07;82.66;93665.91;4993979;28;20210;-79
2023/12/14 08:07:18;;;;;;;0.30;0.30;;;;;;;10.25;80.92;93678.03;4992258;28;20217;-78
2023/12/14 08:09:45;;;;;;;0.20;0.20;;;;;;;10.57;80.24;93652.50;4993559;28;20229;-80
2023/12/14 08:12:12;;;;;;;0.30;0.30;;;;;;;10.69;79.50;93659.72;4992771;28;20541;-78
2023/12/14 08:14:43;;;;;;;1.05;0.95;;;;;;;10.97;78.58;93659.59;4992752;28;20220;-78
2023/12/14 08:17:10;;;;;;;0.30;0.30;;;;;;;10.96;78.16;93663.44;4992553;28;20213;-79
2023/12/14 08:19:37;;;;;;;0.28;0.28;;;;;;;11.18;78.62;93659.28;4991776;28;20651;-79
2023/12/14 08:22:04;;;;;;;0.30;0.30;;;;;;;11.26;76.97;93667.19;4992377;28;20216;-79
2023/12/14 08:24:32;;;;;;;0.65;0.65;;;;;;;11.02;77.02;93670.94;4993110;28;20228;-78
2023/12/14 08:27:01;;;;;;;2.67;1.17;;;;;;;11.13;77.95;93668.47;4992503;28;20272;-79
2023/12/14 08:29:28;;;;;;;4.95;1.60;;;;;;;11.20;77.04;93687.63;4991923;28;20694;-79
2023/12/14 08:31:57;;;;;;;0.63;0.63;;;;;;;11.00;76.60;93675.16;4992855;28;20256;-78
2023/12/14 08:34:24;;;;;;;2.95;0.90;;;;;;;11.27;77.02;93679.63;4992731;28;20210;-80
2023/12/14 08:36:50;;;;;;;1.30;0.98;;;;;;;10.72;77.81;93669.06;4992773;28;20994;-80
2023/12/14 08:39:18;;;;;;;0.30;0.30;;;;;;;10.78;78.35;93683.94;4992274;28;20601;-78
2023/12/14 08:41:47;;;;;;;0.52;0.52;;;;;;;11.22;77.61;93677.19;4992453;28;20213;-79
2023/12/14 08:44:13;;;;;;;0.30;0.30;;;;;;;11.31;76.50;93669.66;4992515;28;20555;-79
2023/12/14 08:46:41;;;;;;;0.30;0.30;;;;;;;11.46;76.34;93676.16;4992158;28;20210;-78
2023/12/14 08:49:08;;;;;;;0.35;0.35;;;;;;;11.88;75.87;93687.09;4992334;28;20530;-79
2023/12/14 08:51:35;;;;;;;0.52;0.52;;;;;;;11.94;74.07;93682.94;4979790;28;20703;-77
2023/12/14 08:54:02;;;;;;;0.43;0.43;;;;;;;12.01;73.61;93682.31;4992094;28;20224;-79
2023/12/14 08:56:29;;;;;;;0.20;0.20;;;;;;;12.07;72.92;93673.50;4992305;28;20222;-79
2023/12/14 08:58:59;;;;;;;0.60;0.60;;;;;;;12.08;73.73;93688.63;4991482;28;20209;-79
2023/12/14 09:01:26;;;;;;;0.40;0.40;;;;;;;12.36;73.17;93674.78;4991916;28;20212;-78
2023/12/14 09:03:53;;;;;;;0.63;0.52;;;;;;;12.68;71.81;93669.88;4991610;28;20573;-79
2023/12/14 09:06:20;;;;;;;0.30;0.30;;;;;;;12.67;71.31;93673.75;4992101;28;20205;-79
2023/12/14 09:08:47;;;;;;;2.28;0.60;;;;;;;12.49;71.29;93680.81;4991578;28;20324;-80
2023/12/14 09:11:15;;;;;;;1.45;0.68;;;;;;;12.85;71.82;93686.84;4992539;28;20217;-79
2023/12/14 09:13:41;;;;;;;0.45;0.45;;;;;;;12.88;69.80;93672.50;4991653;28;20290;-79
2023/12/14 09:16:10;;;;;;;0.47;0.47;;;;;;;12.02;71.62;93664.88;4991873;28;20209;-78
2023/12/14 09:18:37;;;;;;;0.10;0.10;;;;;;;12.22;72.37;93652.03;4991610;28;20212;-78
2023/12/14 09:21:04;;;;;;;0.30;0.30;;;;;;;12.52;72.15;93666.53;4991369;28;20210;-79
2023/12/14 09:23:31;;;;;;;0.63;0.63;;;;;;;12.84;70.67;93658.09;4991875;28;20237;-80
2023/12/14 09:25:58;;;;;;;0.17;0.17;;;;;;;12.72;70.42;93654.41;4991809;28;20205;-79
2023/12/14 09:28:26;;;;;;;0.30;0.30;;;;;;;12.98;70.01;93642.78;4991444;28;20216;-79
2023/12/14 09:31:00;;;;;;;0.32;0.32;;;;;;;13.19;70.52;93660.56;4991830;28;20594;-78
2023/12/14 09:33:30;;;;;;;0.40;0.40;;;;;;;13.44;69.08;93648.88;4987493;28;20659;-79
2023/12/14 09:35:57;;;;;;;2.58;1.83;;;;;;;13.60;67.47;93650.63;4983887;28;20273;-77
2023/12/14 09:38:24;;;;;;;2.28;1.60;;;;;;;13.61;67.64;93665.78;4991418;28;20246;-78
2023/12/14 09:40:51;;;;;;;2.38;1.50;;;;;;;13.22;67.99;93665.28;4984082;28;20337;-78
2023/12/14 09:43:18;;;;;;;0.38;0.38;;;;;;;13.21;68.01;93664.50;4992051;28;20671;-77
2023/12/14 09:45:46;;;;;;;1.60;1.08;;;;;;;13.31;67.39;93669.28;4992011;28;20210;-78
2023/12/14 09:48:16;;;;;;;1.50;1.02;;;;;;;13.15;67.78;93660.50;4991320;28;20309;-79
2023/12/14 09:50:45;;;;;;;2.42;1.38;;;;;;;13.57;67.49;93675.84;4992064;28;20336;-77
2023/12/14 09:53:12;;;;;;;0.20;0.20;;;;;;;14.07;66.40;93678.00;4991494;28;20613;-78
2023/12/14 09:55:39;;;;;;;1.00;0.52;;;;;;;14.28;65.58;93685.63;4991568;28;20221;-79
2023/12/14 09:58:06;;;;;;;2.22;0.75;;;;;;;14.54;65.06;93685.50;4990886;28;20205;-78
2023/12/14 10:00:37;;;;;;;0.35;0.35;;;;;;;14.77;63.62;93689.97;4990563;28;20233;-78
2023/12/14 10:03:22;;;;;;;2.45;0.68;;;;;;;14.61;63.49;93684.81;4991127;28;20264;-79
2023/12/14 10:05:53;;;;;;;0.82;0.82;;;;;;;14.80;62.97;93670.94;4991273;28;20215;-78
2023/12/14 10:08:20;;;;;;;1.00;0.63;;;;;;;14.65;62.66;93671.97;4990773;28;20205;-79
2023/12/14 10:10:51;;;;;;;0.40;0.40;;;;;;;14.70;63.48;93668.13;4991094;28;20309;-79
2023/12/14 10:13:18;;;;;;;0.20;0.20;;;;;;;14.63;63.55;93670.78;4991297;28;20216;-79
2023/12/14 10:15:46;;;;;;;0.57;0.57;;;;;;;14.65;63.06;93685.59;4991280;28;20698;-79
2023/12/14 10:18:18;;;;;;;3.50;0.77;;;;;;;14.41;62.88;93664.34;4991075;28;20237;-79
2023/12/14 10:20:47;;;;;;;0.50;0.50;;;;;;;14.32;63.16;93678.28;4991651;28;20240;-80
2023/12/14 10:23:16;;;;;;;1.48;1.10;;;;;;;14.23;63.66;93658.69;4990412;28;20213;-78
2023/12/14 10:25:43;;;;;;;1.27;1.00;;;;;;;13.82;65.65;93663.31;4991487;28;20221;-78
2023/12/14 10:28:13;;;;;;;0.90;0.90;;;;;;;13.63;66.18;93668.94;4990752;28;20213;-78
2023/12/14 10:30:40;;;;;;;3.33;2.25;;;;;;;13.72;66.27;93675.66;4991037;28;20248;-79
2023/12/14 10:33:07;;;;;;;3.50;2.22;;;;;;;12.98;67.98;93671.91;4991225;28;20213;-79
2023/12/14 10:35:34;;;;;;;4.97;0.77;;;;;;;12.76;69.66;93687.06;4991120;28;20296;-79
2023/12/14 10:38:04;;;;;;;4.18;2.67;;;;;;;13.01;68.79;93687.47;4990589;28;20230;-78
2023/12/14 10:40:32;;;;;;;2.05;1.33;;;;;;;12.93;69.60;93702.09;4991193;28;20563;-79
2023/12/14 10:43:01;;;;;;;0.77;0.77;;;;;;;12.84;69.99;93709.75;4990674;28;20312;-79
2023/12/14 10:45:33;;;;;;;0.30;0.30;;;;;;;12.74;72.02;93706.47;4990952;28;20209;-79
2023/12/14 10:48:00;;;;;;;0.20;0.20;;;;;;;12.28;76.51;93705.69;4991890;28;20297;-79
2023/12/14 10:50:30;;;;;;;1.05;0.95;;;;;;;12.01;79.40;93712.94;4992546;28;20716;-79
2023/12/14 10:52:57;;;;;;;1.35;0.93;;;;;;;11.93;80.50;93716.66;4994544;28;20217;-78
2023/12/14 10:55:30;;;;;;;1.15;0.98;;;;;;;11.83;81.96;93733.50;4995767;28;20221;-78
2023/12/14 10:58:00;;;;;;;0.77;0.77;;;;;;;11.94;82.52;93734.50;4994338;28;20671;-78
2023/12/14 11:00:28;;;;;;;0.47;0.47;;;;;;;11.95;83.35;93727.94;4994584;28;20217;-79
2023/12/14 11:02:56;;;;;;;0.38;0.38;;;;;;;11.87;84.51;93731.66;4994150;28;20271;-80
2023/12/14 11:05:29;;;;;;;0.63;0.63;;;;;;;11.86;85.54;93730.09;4977232;28;20210;-78
2023/12/14 11:08:00;;;;;;;0.68;0.68;;;;;;;11.88;86.19;93741.38;4994379;28;20209;-79
2023/12/14 11:10:29;;;;;;;2.92;1.70;;;;;;;11.83;86.64;93744.38;4994355;28;20244;-79
2023/12/14 11:13:01;;;;;;;0.70;0.70;;;;;;;11.65;87.06;93756.72;4994059;28;20245;-79
2023/12/14 11:15:30;;;;;;;0.30;0.30;;;;;;;11.29;87.34;93757.88;4996712;28;20201;-79
2023/12/14 11:18:26;;;;;;;0.20;0.20;;;;;;;11.10;87.76;93758.59;4996420;28;20677;-78
2023/12/14 11:20:57;;;;;;;0.32;0.30;;;;;;;10.69;87.84;93763.44;4996452;28;20233;-79
2023/12/14 11:23:34;;;;;;;0.55;0.40;;;;;;;10.72;87.19;93766.59;4995424;28;20202;-78
2023/12/14 11:26:04;;;;;;;0.32;0.32;;;;;;;10.63;87.32;93777.59;4995693;28;20218;-77
2023/12/14 11:28:34;;;;;;;0.20;0.20;;;;;;;10.56;86.83;93789.03;4994775;28;20224;-78
2023/12/14 11:31:02;;;;;;;0.20;0.20;;;;;;;10.41;87.58;93784.38;4993975;28;20225;-80
2023/12/14 11:33:29;;;;;;;0.20;0.20;;;;;;;10.19;88.10;93798.47;4991936;28;20241;-77
2023/12/14 11:35:56;;;;;;;0.88;0.38;;;;;;;10.25;88.00;93791.69;4987727;28;20792;-78